sensor_id;sensor_type;location;lat;lon;timestamp;pressure;altitude;pressure_sealevel;temperature;humidity
50682;BME280;36779;52.168;20.878;2023-09-30T00:01:01;100654.65;;;16.00;56.45
50682;BME280;36779;52.168;20.878;2023-09-30T00:03:33;100654.41;;;16.00;56.43
50682;BME280;36779;52.168;20.878;2023-09-30T00:06:03;100652.88;;;15.99;56.52
50682;BME280;36779;52.168;20.878;2023-09-30T00:08:32;100658.08;;;15.99;56.41
50682;BME280;36779;52.168;20.878;2023-09-30T00:11:01;100653.80;;;15.99;56.49
50682;BME280;36779;52.168;20.878;2023-09-30T00:13:30;100652.64;;;15.98;56.54
50682;BME280;36779;52.168;20.878;2023-09-30T00:15:58;100649.95;;;15.97;56.68
50682;BME280;36779;52.168;20.878;2023-09-30T00:18:27;100650.20;;;15.98;56.58
50682;BME280;36779;52.168;20.878;2023-09-30T00:20:57;100643.95;;;15.99;56.49
50682;BME280;36779;52.168;20.878;2023-09-30T00:23:27;100641.91;;;16.01;56.63
50682;BME280;36779;52.168;20.878;2023-09-30T00:25:58;100640.54;;;16.04;56.65
50682;BME280;36779;52.168;20.878;2023-09-30T00:28:27;100636.00;;;16.06;56.76
50682;BME280;36779;52.168;20.878;2023-09-30T00:30:58;100635.48;;;16.07;56.74
50682;BME280;36779;52.168;20.878;2023-09-30T00:33:27;100632.42;;;16.08;56.99
50682;BME280;36779;52.168;20.878;2023-09-30T00:35:57;100627.91;;;16.09;56.77
50682;BME280;36779;52.168;20.878;2023-09-30T00:38:27;100623.73;;;16.07;56.73
50682;BME280;36779;52.168;20.878;2023-09-30T00:40:56;100628.66;;;16.07;56.94
50682;BME280;36779;52.168;20.878;2023-09-30T00:43:27;100629.86;;;16.07;56.90
50682;BME280;36779;52.168;20.878;2023-09-30T00:46:04;100633.21;;;16.08;56.81
50682;BME280;36779;52.168;20.878;2023-09-30T00:48:35;100634.50;;;16.09;56.95
50682;BME280;36779;52.168;20.878;2023-09-30T00:51:05;100632.96;;;16.12;57.00
50682;BME280;36779;52.168;20.878;2023-09-30T00:53:34;100629.21;;;16.14;56.93
50682;BME280;36779;52.168;20.878;2023-09-30T00:56:03;100632.27;;;16.15;56.92
50682;BME280;36779;52.168;20.878;2023-09-30T00:58:35;100639.23;;;16.15;56.92
50682;BME280;36779;52.168;20.878;2023-09-30T01:01:05;100640.14;;;16.18;57.20
50682;BME280;36779;52.168;20.878;2023-09-30T01:03:34;100644.30;;;16.20;57.16
50682;BME280;36779;52.168;20.878;2023-09-30T01:06:03;100641.30;;;16.23;57.00
50682;BME280;36779;52.168;20.878;2023-09-30T01:08:33;100641.17;;;16.23;57.18
50682;BME280;36779;52.168;20.878;2023-09-30T01:11:02;100643.52;;;16.21;57.25
50682;BME280;36779;52.168;20.878;2023-09-30T01:13:34;100642.84;;;16.15;57.00
50682;BME280;36779;52.168;20.878;2023-09-30T01:16:07;100638.56;;;16.09;56.93
50682;BME280;36779;52.168;20.878;2023-09-30T01:18:38;100641.23;;;16.08;56.98
50682;BME280;36779;52.168;20.878;2023-09-30T01:21:08;100641.31;;;16.09;57.09
50682;BME280;36779;52.168;20.878;2023-09-30T01:23:37;100638.63;;;16.09;57.18
50682;BME280;36779;52.168;20.878;2023-09-30T01:26:08;100637.81;;;16.04;57.10
50682;BME280;36779;52.168;20.878;2023-09-30T01:28:37;100631.48;;;16.01;57.08
50682;BME280;36779;52.168;20.878;2023-09-30T01:31:06;100635.09;;;16.06;57.08
50682;BME280;36779;52.168;20.878;2023-09-30T01:33:36;100630.21;;;16.05;57.33
50682;BME280;36779;52.168;20.878;2023-09-30T01:36:06;100625.84;;;16.07;57.51
50682;BME280;36779;52.168;20.878;2023-09-30T01:38:35;100624.34;;;16.10;57.52
50682;BME280;36779;52.168;20.878;2023-09-30T01:41:05;100626.98;;;16.09;57.59
50682;BME280;36779;52.168;20.878;2023-09-30T01:43:35;100623.25;;;16.04;57.42
50682;BME280;36779;52.168;20.878;2023-09-30T01:46:05;100617.79;;;16.00;57.51
50682;BME280;36779;52.168;20.878;2023-09-30T01:48:34;100616.73;;;15.97;57.45
50682;BME280;36779;52.168;20.878;2023-09-30T01:51:03;100624.70;;;15.97;57.67
50682;BME280;36779;52.168;20.878;2023-09-30T01:53:32;100618.70;;;15.99;57.58
50682;BME280;36779;52.168;20.878;2023-09-30T01:56:01;100617.20;;;15.99;57.69
50682;BME280;36779;52.168;20.878;2023-09-30T01:58:31;100616.14;;;15.96;57.53
50682;BME280;36779;52.168;20.878;2023-09-30T02:01:03;100615.13;;;15.94;57.77
50682;BME280;36779;52.168;20.878;2023-09-30T02:03:32;100612.52;;;15.94;57.69
50682;BME280;36779;52.168;20.878;2023-09-30T02:06:01;100609.94;;;15.89;57.75
50682;BME280;36779;52.168;20.878;2023-09-30T02:08:31;100614.05;;;15.86;57.85
50682;BME280;36779;52.168;20.878;2023-09-30T02:11:00;100613.33;;;15.83;57.95
50682;BME280;36779;52.168;20.878;2023-09-30T02:13:29;100605.63;;;15.83;58.01
50682;BME280;36779;52.168;20.878;2023-09-30T02:15:59;100606.92;;;15.84;57.85
50682;BME280;36779;52.168;20.878;2023-09-30T02:18:29;100607.77;;;15.86;58.16
50682;BME280;36779;52.168;20.878;2023-09-30T02:21:00;100602.84;;;15.90;58.21
50682;BME280;36779;52.168;20.878;2023-09-30T02:23:30;100609.41;;;15.90;58.07
50682;BME280;36779;52.168;20.878;2023-09-30T02:25:58;100612.08;;;15.88;58.10
50682;BME280;36779;52.168;20.878;2023-09-30T02:28:29;100612.57;;;15.87;57.97
50682;BME280;36779;52.168;20.878;2023-09-30T02:31:00;100610.60;;;15.85;58.25
50682;BME280;36779;52.168;20.878;2023-09-30T02:33:29;100608.52;;;15.80;58.35
50682;BME280;36779;52.168;20.878;2023-09-30T02:36:01;100612.73;;;15.78;58.10
50682;BME280;36779;52.168;20.878;2023-09-30T02:38:30;100614.80;;;15.79;58.26
50682;BME280;36779;52.168;20.878;2023-09-30T02:40:59;100614.85;;;15.80;58.53
50682;BME280;36779;52.168;20.878;2023-09-30T02:43:28;100611.13;;;15.84;58.62
50682;BME280;36779;52.168;20.878;2023-09-30T02:45:57;100612.76;;;15.85;58.41
50682;BME280;36779;52.168;20.878;2023-09-30T02:48:27;100610.94;;;15.82;58.51
50682;BME280;36779;52.168;20.878;2023-09-30T02:50:58;100607.52;;;15.83;58.47
50682;BME280;36779;52.168;20.878;2023-09-30T02:53:29;100609.47;;;15.87;58.57
50682;BME280;36779;52.168;20.878;2023-09-30T02:55:58;100608.06;;;15.91;58.65
50682;BME280;36779;52.168;20.878;2023-09-30T02:58:28;100604.11;;;15.90;58.48
50682;BME280;36779;52.168;20.878;2023-09-30T03:00:57;100603.86;;;15.84;58.53
50682;BME280;36779;52.168;20.878;2023-09-30T03:03:26;100608.44;;;15.88;58.58
50682;BME280;36779;52.168;20.878;2023-09-30T03:05:58;100602.09;;;15.86;58.63
50682;BME280;36779;52.168;20.878;2023-09-30T03:08:28;100605.69;;;15.86;58.77
50682;BME280;36779;52.168;20.878;2023-09-30T03:10:58;100598.05;;;15.82;58.79
50682;BME280;36779;52.168;20.878;2023-09-30T03:13:27;100599.73;;;15.76;58.68
50682;BME280;36779;52.168;20.878;2023-09-30T03:15:57;100602.68;;;15.75;58.85
50682;BME280;36779;52.168;20.878;2023-09-30T03:18:27;100599.39;;;15.75;58.75
50682;BME280;36779;52.168;20.878;2023-09-30T03:21:00;100595.48;;;15.81;59.04
50682;BME280;36779;52.168;20.878;2023-09-30T03:23:30;100593.98;;;15.89;58.96
50682;BME280;36779;52.168;20.878;2023-09-30T03:25:59;100593.05;;;15.92;59.12
50682;BME280;36779;52.168;20.878;2023-09-30T03:28:28;100594.13;;;15.91;59.03
50682;BME280;36779;52.168;20.878;2023-09-30T03:30:57;100592.84;;;15.95;59.13
50682;BME280;36779;52.168;20.878;2023-09-30T03:33:27;100595.36;;;15.99;59.19
50682;BME280;36779;52.168;20.878;2023-09-30T03:36:00;100590.13;;;15.96;59.23
50682;BME280;36779;52.168;20.878;2023-09-30T03:38:30;100591.29;;;15.89;59.03
50682;BME280;36779;52.168;20.878;2023-09-30T03:41:01;100591.37;;;15.80;58.89
50682;BME280;36779;52.168;20.878;2023-09-30T03:43:30;100587.81;;;15.76;59.17
50682;BME280;36779;52.168;20.878;2023-09-30T03:45:59;100586.11;;;15.76;59.28
50682;BME280;36779;52.168;20.878;2023-09-30T03:48:29;100591.16;;;15.80;59.41
50682;BME280;36779;52.168;20.878;2023-09-30T03:51:08;100593.73;;;15.81;59.26
50682;BME280;36779;52.168;20.878;2023-09-30T03:53:37;100592.21;;;15.86;59.49
50682;BME280;36779;52.168;20.878;2023-09-30T03:56:06;100594.39;;;15.87;59.35
50682;BME280;36779;52.168;20.878;2023-09-30T03:58:35;100596.66;;;15.85;59.34
50682;BME280;36779;52.168;20.878;2023-09-30T04:01:06;100596.44;;;15.82;59.39
50682;BME280;36779;52.168;20.878;2023-09-30T04:03:36;100597.37;;;15.81;59.41
50682;BME280;36779;52.168;20.878;2023-09-30T04:06:08;100600.47;;;15.85;59.52
50682;BME280;36779;52.168;20.878;2023-09-30T04:08:36;100601.96;;;15.90;59.52
50682;BME280;36779;52.168;20.878;2023-09-30T04:11:06;100599.10;;;15.88;59.49
50682;BME280;36779;52.168;20.878;2023-09-30T04:13:34;100597.75;;;15.85;59.50
50682;BME280;36779;52.168;20.878;2023-09-30T04:16:03;100593.84;;;15.87;59.59
50682;BME280;36779;52.168;20.878;2023-09-30T04:18:32;100588.04;;;15.90;59.75
50682;BME280;36779;52.168;20.878;2023-09-30T04:21:02;100590.39;;;15.95;59.73
50682;BME280;36779;52.168;20.878;2023-09-30T04:23:31;100587.48;;;15.98;59.56
50682;BME280;36779;52.168;20.878;2023-09-30T04:26:00;100589.00;;;16.00;59.65
50682;BME280;36779;52.168;20.878;2023-09-30T04:28:31;100590.38;;;16.01;59.76
50682;BME280;36779;52.168;20.878;2023-09-30T04:31:02;100592.15;;;16.00;59.82
50682;BME280;36779;52.168;20.878;2023-09-30T04:33:32;100589.83;;;16.00;59.97
50682;BME280;36779;52.168;20.878;2023-09-30T04:36:05;100587.31;;;16.00;59.92
50682;BME280;36779;52.168;20.878;2023-09-30T04:38:36;100585.54;;;16.00;60.00
50682;BME280;36779;52.168;20.878;2023-09-30T04:41:06;100586.36;;;16.01;59.97
50682;BME280;36779;52.168;20.878;2023-09-30T04:43:35;100581.64;;;16.00;59.93
50682;BME280;36779;52.168;20.878;2023-09-30T04:46:06;100585.41;;;15.97;59.85
50682;BME280;36779;52.168;20.878;2023-09-30T04:48:36;100586.29;;;15.97;59.87
50682;BME280;36779;52.168;20.878;2023-09-30T04:51:07;100587.05;;;16.00;59.81
50682;BME280;36779;52.168;20.878;2023-09-30T04:53:37;100587.23;;;16.04;60.07
50682;BME280;36779;52.168;20.878;2023-09-30T04:56:06;100583.65;;;16.08;60.11
50682;BME280;36779;52.168;20.878;2023-09-30T04:58:35;100582.73;;;16.11;60.03
50682;BME280;36779;52.168;20.878;2023-09-30T05:01:03;100583.95;;;16.13;60.19
50682;BME280;36779;52.168;20.878;2023-09-30T05:03:32;100582.59;;;16.14;59.93
50682;BME280;36779;52.168;20.878;2023-09-30T05:06:02;100585.20;;;16.13;60.16
50682;BME280;36779;52.168;20.878;2023-09-30T05:08:31;100587.24;;;16.12;60.14
50682;BME280;36779;52.168;20.878;2023-09-30T05:11:00;100589.16;;;16.13;60.04
50682;BME280;36779;52.168;20.878;2023-09-30T05:13:29;100590.63;;;16.14;60.10
50682;BME280;36779;52.168;20.878;2023-09-30T05:15:59;100591.77;;;16.14;60.00
50682;BME280;36779;52.168;20.878;2023-09-30T05:18:28;100594.15;;;16.12;60.08
50682;BME280;36779;52.168;20.878;2023-09-30T05:21:00;100595.39;;;16.16;60.29
50682;BME280;36779;52.168;20.878;2023-09-30T05:23:31;100597.63;;;16.21;60.26
50682;BME280;36779;52.168;20.878;2023-09-30T05:26:00;100597.53;;;16.25;60.24
50682;BME280;36779;52.168;20.878;2023-09-30T05:28:30;100601.48;;;16.28;60.22
50682;BME280;36779;52.168;20.878;2023-09-30T05:31:00;100603.84;;;16.30;60.31
50682;BME280;36779;52.168;20.878;2023-09-30T05:33:30;100606.20;;;16.31;60.37
50682;BME280;36779;52.168;20.878;2023-09-30T05:36:02;100605.33;;;16.31;60.38
50682;BME280;36779;52.168;20.878;2023-09-30T05:38:32;100612.32;;;16.31;60.27
50682;BME280;36779;52.168;20.878;2023-09-30T05:41:01;100614.38;;;16.31;60.25
50682;BME280;36779;52.168;20.878;2023-09-30T05:43:30;100620.64;;;16.31;60.37
50682;BME280;36779;52.168;20.878;2023-09-30T05:46:01;100624.29;;;16.32;60.42
50682;BME280;36779;52.168;20.878;2023-09-30T05:48:31;100625.23;;;16.35;60.39
50682;BME280;36779;52.168;20.878;2023-09-30T05:51:02;100629.31;;;16.40;60.48
50682;BME280;36779;52.168;20.878;2023-09-30T05:53:31;100639.34;;;16.44;60.53
50682;BME280;36779;52.168;20.878;2023-09-30T05:56:01;100639.91;;;16.45;60.48
50682;BME280;36779;52.168;20.878;2023-09-30T05:58:32;100639.47;;;16.46;60.38
50682;BME280;36779;52.168;20.878;2023-09-30T06:01:01;100644.71;;;16.45;60.55
50682;BME280;36779;52.168;20.878;2023-09-30T06:03:31;100651.06;;;16.47;60.44
50682;BME280;36779;52.168;20.878;2023-09-30T06:06:03;100654.70;;;16.46;60.58
50682;BME280;36779;52.168;20.878;2023-09-30T06:08:38;100655.05;;;16.47;60.61
50682;BME280;36779;52.168;20.878;2023-09-30T06:11:07;100654.45;;;16.50;60.55
50682;BME280;36779;52.168;20.878;2023-09-30T06:13:46;100653.81;;;16.53;60.49
50682;BME280;36779;52.168;20.878;2023-09-30T06:16:14;100658.19;;;16.57;60.66
50682;BME280;36779;52.168;20.878;2023-09-30T06:18:44;100658.25;;;16.59;60.57
50682;BME280;36779;52.168;20.878;2023-09-30T06:21:14;100660.72;;;16.62;60.72
50682;BME280;36779;52.168;20.878;2023-09-30T06:23:43;100657.46;;;16.65;60.73
50682;BME280;36779;52.168;20.878;2023-09-30T06:26:12;100659.89;;;16.68;60.83
50682;BME280;36779;52.168;20.878;2023-09-30T06:28:40;100656.14;;;16.66;60.79
50682;BME280;36779;52.168;20.878;2023-09-30T06:31:09;100661.79;;;16.67;60.90
50682;BME280;36779;52.168;20.878;2023-09-30T06:33:39;100660.35;;;16.68;60.83
50682;BME280;36779;52.168;20.878;2023-09-30T06:36:11;100659.48;;;16.69;60.88
50682;BME280;36779;52.168;20.878;2023-09-30T06:38:43;100662.85;;;16.71;60.98
50682;BME280;36779;52.168;20.878;2023-09-30T06:41:16;100669.45;;;16.75;60.97
50682;BME280;36779;52.168;20.878;2023-09-30T06:43:46;100670.86;;;16.79;60.96
50682;BME280;36779;52.168;20.878;2023-09-30T06:46:15;100676.52;;;16.84;61.07
50682;BME280;36779;52.168;20.878;2023-09-30T06:48:44;100675.85;;;16.87;61.19
50682;BME280;36779;52.168;20.878;2023-09-30T06:51:17;100677.17;;;16.93;61.21
50682;BME280;36779;52.168;20.878;2023-09-30T06:53:45;100678.24;;;16.97;61.34
50682;BME280;36779;52.168;20.878;2023-09-30T06:56:14;100680.03;;;17.00;61.26
50682;BME280;36779;52.168;20.878;2023-09-30T06:58:44;100686.14;;;17.00;61.39
50682;BME280;36779;52.168;20.878;2023-09-30T07:01:16;100687.25;;;17.00;61.39
50682;BME280;36779;52.168;20.878;2023-09-30T07:03:46;100691.55;;;17.00;61.39
50682;BME280;36779;52.168;20.878;2023-09-30T07:06:23;100692.48;;;17.01;61.50
50682;BME280;36779;52.168;20.878;2023-09-30T07:08:52;100691.61;;;17.02;61.60
50682;BME280;36779;52.168;20.878;2023-09-30T07:11:28;100698.70;;;17.05;61.54
50682;BME280;36779;52.168;20.878;2023-09-30T07:13:57;100698.52;;;17.08;61.72
50682;BME280;36779;52.168;20.878;2023-09-30T07:16:26;100700.17;;;17.09;61.54
50682;BME280;36779;52.168;20.878;2023-09-30T07:18:54;100699.92;;;17.12;61.62
50682;BME280;36779;52.168;20.878;2023-09-30T07:21:24;100699.00;;;17.17;61.77
50682;BME280;36779;52.168;20.878;2023-09-30T07:23:53;100700.35;;;17.22;61.84
50682;BME280;36779;52.168;20.878;2023-09-30T07:26:25;100701.30;;;17.27;61.93
50682;BME280;36779;52.168;20.878;2023-09-30T07:28:54;100700.67;;;17.32;61.88
50682;BME280;36779;52.168;20.878;2023-09-30T07:31:25;100704.98;;;17.35;62.00
50682;BME280;36779;52.168;20.878;2023-09-30T07:33:54;100705.46;;;17.36;61.88
50682;BME280;36779;52.168;20.878;2023-09-30T07:36:23;100710.60;;;17.37;62.02
50682;BME280;36779;52.168;20.878;2023-09-30T07:38:52;100709.45;;;17.39;61.98
50682;BME280;36779;52.168;20.878;2023-09-30T07:41:22;100712.58;;;17.40;61.99
50682;BME280;36779;52.168;20.878;2023-09-30T07:43:54;100707.64;;;17.43;62.08
50682;BME280;36779;52.168;20.878;2023-09-30T07:46:22;100703.10;;;17.49;62.23
50682;BME280;36779;52.168;20.878;2023-09-30T07:48:52;100709.38;;;17.57;62.29
50682;BME280;36779;52.168;20.878;2023-09-30T07:51:22;100710.52;;;17.70;62.41
50682;BME280;36779;52.168;20.878;2023-09-30T07:53:54;100709.70;;;17.80;62.46
50682;BME280;36779;52.168;20.878;2023-09-30T07:56:22;100706.11;;;17.92;62.40
50682;BME280;36779;52.168;20.878;2023-09-30T07:58:52;100710.33;;;18.04;62.59
50682;BME280;36779;52.168;20.878;2023-09-30T08:01:21;100709.29;;;18.13;62.44
50682;BME280;36779;52.168;20.878;2023-09-30T08:03:50;100713.66;;;18.21;62.59
50682;BME280;36779;52.168;20.878;2023-09-30T08:06:19;100712.30;;;18.28;62.44
50682;BME280;36779;52.168;20.878;2023-09-30T08:08:48;100714.84;;;18.31;62.35
50682;BME280;36779;52.168;20.878;2023-09-30T08:11:19;100715.04;;;18.32;62.46
50682;BME280;36779;52.168;20.878;2023-09-30T08:13:48;100714.93;;;18.34;62.53
50682;BME280;36779;52.168;20.878;2023-09-30T08:16:17;100717.67;;;18.32;62.35
50682;BME280;36779;52.168;20.878;2023-09-30T08:18:49;100725.09;;;18.29;62.42
50682;BME280;36779;52.168;20.878;2023-09-30T08:21:18;100728.91;;;18.29;62.44
50682;BME280;36779;52.168;20.878;2023-09-30T08:23:47;100723.59;;;18.31;62.58
50682;BME280;36779;52.168;20.878;2023-09-30T08:26:15;100721.32;;;18.35;62.70
50682;BME280;36779;52.168;20.878;2023-09-30T08:28:44;100720.22;;;18.36;62.57
50682;BME280;36779;52.168;20.878;2023-09-30T08:31:13;100724.16;;;18.37;62.56
50682;BME280;36779;52.168;20.878;2023-09-30T08:33:42;100721.73;;;18.39;62.72
50682;BME280;36779;52.168;20.878;2023-09-30T08:36:14;100724.03;;;18.42;62.66
50682;BME280;36779;52.168;20.878;2023-09-30T08:38:44;100727.12;;;18.44;62.90
50682;BME280;36779;52.168;20.878;2023-09-30T08:41:24;100728.27;;;18.45;62.78
50682;BME280;36779;52.168;20.878;2023-09-30T08:43:56;100729.93;;;18.39;62.73
50682;BME280;36779;52.168;20.878;2023-09-30T08:46:30;100732.65;;;18.35;62.79
50682;BME280;36779;52.168;20.878;2023-09-30T08:49:01;100728.70;;;18.33;62.79
50682;BME280;36779;52.168;20.878;2023-09-30T08:51:32;100728.88;;;18.30;62.85
50682;BME280;36779;52.168;20.878;2023-09-30T08:54:02;100731.81;;;18.33;62.79
50682;BME280;36779;52.168;20.878;2023-09-30T08:56:33;100735.61;;;18.35;62.99
50682;BME280;36779;52.168;20.878;2023-09-30T08:59:03;100739.30;;;18.38;63.01
50682;BME280;36779;52.168;20.878;2023-09-30T09:01:32;100743.34;;;18.40;63.03
50682;BME280;36779;52.168;20.878;2023-09-30T09:04:03;100747.11;;;18.44;63.20
50682;BME280;36779;52.168;20.878;2023-09-30T09:06:32;100746.56;;;18.47;63.11
50682;BME280;36779;52.168;20.878;2023-09-30T09:09:15;100746.80;;;18.48;63.00
50682;BME280;36779;52.168;20.878;2023-09-30T09:11:45;100750.46;;;18.47;63.13
50682;BME280;36779;52.168;20.878;2023-09-30T09:14:14;100753.85;;;18.42;63.03
50682;BME280;36779;52.168;20.878;2023-09-30T09:16:53;100756.70;;;18.34;63.01
50682;BME280;36779;52.168;20.878;2023-09-30T09:19:23;100756.65;;;18.30;63.18
50682;BME280;36779;52.168;20.878;2023-09-30T09:21:56;100757.01;;;18.29;63.11
50682;BME280;36779;52.168;20.878;2023-09-30T09:24:29;100758.11;;;18.25;63.20
50682;BME280;36779;52.168;20.878;2023-09-30T09:27:12;100758.88;;;18.23;63.21
50682;BME280;36779;52.168;20.878;2023-09-30T09:29:45;100758.44;;;18.22;63.32
50682;BME280;36779;52.168;20.878;2023-09-30T09:32:15;100758.75;;;18.23;63.28
50682;BME280;36779;52.168;20.878;2023-09-30T09:34:45;100765.17;;;18.23;63.30
50682;BME280;36779;52.168;20.878;2023-09-30T09:37:30;100766.05;;;18.21;63.30
50682;BME280;36779;52.168;20.878;2023-09-30T09:40:00;100767.94;;;18.18;63.29
50682;BME280;36779;52.168;20.878;2023-09-30T09:42:31;100769.59;;;18.14;63.35
50682;BME280;36779;52.168;20.878;2023-09-30T09:45:07;100777.30;;;18.09;63.25
50682;BME280;36779;52.168;20.878;2023-09-30T09:47:37;100775.41;;;18.04;63.36
50682;BME280;36779;52.168;20.878;2023-09-30T09:50:11;100780.05;;;18.03;63.35
50682;BME280;36779;52.168;20.878;2023-09-30T09:52:40;100783.63;;;17.97;63.43
50682;BME280;36779;52.168;20.878;2023-09-30T09:55:11;100788.55;;;17.92;63.37
50682;BME280;36779;52.168;20.878;2023-09-30T09:57:43;100791.71;;;17.84;63.43
50682;BME280;36779;52.168;20.878;2023-09-30T10:00:16;100794.86;;;17.76;63.50
50682;BME280;36779;52.168;20.878;2023-09-30T10:02:47;100797.31;;;17.75;63.72
50682;BME280;36779;52.168;20.878;2023-09-30T10:05:17;100798.27;;;17.74;63.58
50682;BME280;36779;52.168;20.878;2023-09-30T10:07:51;100805.21;;;17.71;63.71
50682;BME280;36779;52.168;20.878;2023-09-30T10:10:22;100808.57;;;17.70;63.71
50682;BME280;36779;52.168;20.878;2023-09-30T10:12:51;100811.08;;;17.66;63.79
50682;BME280;36779;52.168;20.878;2023-09-30T10:15:39;100814.69;;;17.60;63.76
50682;BME280;36779;52.168;20.878;2023-09-30T10:18:12;100821.09;;;17.55;63.86
50682;BME280;36779;52.168;20.878;2023-09-30T10:20:45;100825.58;;;17.51;63.89
50682;BME280;36779;52.168;20.878;2023-09-30T10:23:21;100826.34;;;17.48;63.97
50682;BME280;36779;52.168;20.878;2023-09-30T10:25:55;100830.75;;;17.44;63.88
50682;BME280;36779;52.168;20.878;2023-09-30T10:28:44;100829.94;;;17.37;63.93
50682;BME280;36779;52.168;20.878;2023-09-30T10:31:16;100837.30;;;17.33;64.00
50682;BME280;36779;52.168;20.878;2023-09-30T10:34:20;100843.81;;;17.29;64.12
50682;BME280;36779;52.168;20.878;2023-09-30T10:36:50;100848.41;;;17.23;64.06
50682;BME280;36779;52.168;20.878;2023-09-30T10:39:56;100857.65;;;17.18;64.14
50682;BME280;36779;52.168;20.878;2023-09-30T10:42:47;100859.83;;;17.10;64.11
50682;BME280;36779;52.168;20.878;2023-09-30T10:45:45;100865.90;;;17.01;64.05
50682;BME280;36779;52.168;20.878;2023-09-30T10:48:37;100875.16;;;16.93;64.17
50682;BME280;36779;52.168;20.878;2023-09-30T10:51:15;100880.65;;;16.88;64.18
50682;BME280;36779;52.168;20.878;2023-09-30T10:53:48;100891.95;;;16.79;64.29
50682;BME280;36779;52.168;20.878;2023-09-30T10:56:20;100893.69;;;16.70;64.36
50682;BME280;36779;52.168;20.878;2023-09-30T10:58:51;100897.02;;;16.65;64.34
50682;BME280;36779;52.168;20.878;2023-09-30T11:01:21;100903.14;;;16.64;64.52
50682;BME280;36779;52.168;20.878;2023-09-30T11:03:59;100906.55;;;16.58;64.36
50682;BME280;36779;52.168;20.878;2023-09-30T11:06:32;100911.96;;;16.47;64.52
50682;BME280;36779;52.168;20.878;2023-09-30T11:09:02;100908.52;;;16.39;64.46
50682;BME280;36779;52.168;20.878;2023-09-30T11:11:39;100907.55;;;16.33;64.66
50682;BME280;36779;52.168;20.878;2023-09-30T11:14:22;100911.95;;;16.27;64.64
50682;BME280;36779;52.168;20.878;2023-09-30T11:16:57;100911.78;;;16.30;64.81
50682;BME280;36779;52.168;20.878;2023-09-30T11:19:27;100916.47;;;16.34;64.83
50682;BME280;36779;52.168;20.878;2023-09-30T11:22:02;100916.30;;;16.37;64.87
50682;BME280;36779;52.168;20.878;2023-09-30T11:24:35;100918.48;;;16.38;64.99
50682;BME280;36779;52.168;20.878;2023-09-30T11:27:05;100922.84;;;16.42;64.76
50682;BME280;36779;52.168;20.878;2023-09-30T11:29:34;100919.38;;;16.41;64.84
50682;BME280;36779;52.168;20.878;2023-09-30T11:32:04;100920.91;;;16.42;64.95
50682;BME280;36779;52.168;20.878;2023-09-30T11:34:34;100924.02;;;16.44;65.03
50682;BME280;36779;52.168;20.878;2023-09-30T11:37:03;100918.44;;;16.46;65.16
50682;BME280;36779;52.168;20.878;2023-09-30T11:39:33;100918.64;;;16.52;65.14
50682;BME280;36779;52.168;20.878;2023-09-30T11:42:02;100917.61;;;16.56;65.11
50682;BME280;36779;52.168;20.878;2023-09-30T11:44:46;100919.21;;;16.57;65.17
50682;BME280;36779;52.168;20.878;2023-09-30T11:47:15;100921.92;;;16.60;65.12
50682;BME280;36779;52.168;20.878;2023-09-30T11:49:45;100924.76;;;16.65;64.99
50682;BME280;36779;52.168;20.878;2023-09-30T11:52:26;100923.13;;;16.70;65.21
50682;BME280;36779;52.168;20.878;2023-09-30T11:54:55;100928.61;;;16.73;65.07
50682;BME280;36779;52.168;20.878;2023-09-30T11:57:27;100921.31;;;16.74;65.18
50682;BME280;36779;52.168;20.878;2023-09-30T11:59:55;100912.02;;;16.78;65.22
50682;BME280;36779;52.168;20.878;2023-09-30T12:02:25;100902.73;;;16.92;65.53
50682;BME280;36779;52.168;20.878;2023-09-30T12:04:55;100898.45;;;17.10;65.53
50682;BME280;36779;52.168;20.878;2023-09-30T12:07:23;100899.86;;;17.24;65.48
50682;BME280;36779;52.168;20.878;2023-09-30T12:09:52;100902.94;;;17.39;65.51
50682;BME280;36779;52.168;20.878;2023-09-30T12:12:21;100904.14;;;17.49;65.29
50682;BME280;36779;52.168;20.878;2023-09-30T12:14:50;100906.86;;;17.57;65.22
50682;BME280;36779;52.168;20.878;2023-09-30T12:17:19;100906.28;;;17.63;65.21
50682;BME280;36779;52.168;20.878;2023-09-30T12:19:49;100898.17;;;17.71;65.18
50682;BME280;36779;52.168;20.878;2023-09-30T12:22:18;100901.20;;;17.84;65.39
50682;BME280;36779;52.168;20.878;2023-09-30T12:24:49;100902.60;;;18.04;65.41
50682;BME280;36779;52.168;20.878;2023-09-30T12:27:17;100903.56;;;18.20;65.31
50682;BME280;36779;52.168;20.878;2023-09-30T12:29:46;100909.48;;;18.29;65.34
50682;BME280;36779;52.168;20.878;2023-09-30T12:32:16;100912.40;;;18.43;65.12
50682;BME280;36779;52.168;20.878;2023-09-30T12:34:45;100912.73;;;18.42;64.78
50682;BME280;36779;52.168;20.878;2023-09-30T12:37:14;100908.74;;;18.45;64.91
50682;BME280;36779;52.168;20.878;2023-09-30T12:39:43;100905.85;;;18.55;65.11
50682;BME280;36779;52.168;20.878;2023-09-30T12:42:13;100906.17;;;18.65;64.88
50682;BME280;36779;52.168;20.878;2023-09-30T12:44:43;100901.09;;;18.66;64.54
50682;BME280;36779;52.168;20.878;2023-09-30T12:47:11;100901.46;;;18.62;64.48
50682;BME280;36779;52.168;20.878;2023-09-30T12:49:41;100902.30;;;18.61;64.42
50682;BME280;36779;52.168;20.878;2023-09-30T12:52:10;100903.86;;;18.68;64.57
50682;BME280;36779;52.168;20.878;2023-09-30T12:54:38;100902.58;;;18.73;64.33
50682;BME280;36779;52.168;20.878;2023-09-30T12:57:08;100904.21;;;18.79;64.37
50682;BME280;36779;52.168;20.878;2023-09-30T12:59:37;100906.02;;;18.85;64.37